createdAt,value
2023-01-13T00:01:42.980Z,3.70
2023-01-13T00:04:28.530Z,4.28
2023-01-13T00:07:14.294Z,4.22
2023-01-13T00:09:59.982Z,5.20
2023-01-13T00:12:45.277Z,4.55
2023-01-13T00:15:31.017Z,4.88
2023-01-13T00:18:16.556Z,5.22
2023-01-13T00:21:18.259Z,4.40
2023-01-13T00:24:04.099Z,4.03
2023-01-13T00:26:49.679Z,5.53
2023-01-13T00:29:34.887Z,4.88
2023-01-13T00:32:20.370Z,4.50
2023-01-13T00:35:06.361Z,5.07
2023-01-13T00:37:51.849Z,5.43
2023-01-13T00:40:37.000Z,4.72
2023-01-13T00:43:25.183Z,5.00
2023-01-13T00:46:14.044Z,4.85
2023-01-13T00:49:00.045Z,4.38
2023-01-13T00:51:45.700Z,4.93
2023-01-13T00:54:30.941Z,4.35
2023-01-13T00:57:16.799Z,5.38
2023-01-13T01:00:02.080Z,5.10
2023-01-13T01:02:47.199Z,4.72
2023-01-13T01:05:34.107Z,4.38
2023-01-13T01:08:19.487Z,4.45
2023-01-13T01:11:15.191Z,4.57
2023-01-13T01:14:03.028Z,4.63
2023-01-13T01:16:48.327Z,3.90
2023-01-13T01:19:37.319Z,4.10
2023-01-13T01:22:22.714Z,4.40
2023-01-13T01:25:08.709Z,3.67
2023-01-13T01:27:54.332Z,4.43
2023-01-13T01:30:39.833Z,4.15
2023-01-13T01:33:25.956Z,3.47
2023-01-13T01:36:12.616Z,3.38
2023-01-13T01:38:59.289Z,4.05
2023-01-13T01:42:04.909Z,4.13
2023-01-13T01:44:55.983Z,4.15
2023-01-13T01:47:42.316Z,3.78
2023-01-13T01:50:28.810Z,4.03
2023-01-13T01:53:17.637Z,5.00
2023-01-13T01:56:03.478Z,3.88
2023-01-13T01:58:51.424Z,4.32
2023-01-13T02:01:38.373Z,4.03
2023-01-13T02:04:29.625Z,4.47
2023-01-13T02:07:14.739Z,4.43
2023-01-13T02:10:03.345Z,4.90
2023-01-13T02:12:50.446Z,4.70
2023-01-13T02:15:46.621Z,4.45
2023-01-13T02:18:59.512Z,5.25
2023-01-13T02:21:56.894Z,4.30
2023-01-13T02:25:11.448Z,5.13
2023-01-13T02:28:25.786Z,5.18
2023-01-13T02:31:33.388Z,4.47
2023-01-13T02:34:40.466Z,4.93
2023-01-13T02:37:30.919Z,4.57
2023-01-13T02:40:27.031Z,4.72
2023-01-13T02:43:42.602Z,4.20
2023-01-13T02:46:37.853Z,5.50
2023-01-13T02:49:41.131Z,5.65
2023-01-13T02:53:08.212Z,4.72
2023-01-13T02:55:55.557Z,5.00
2023-01-13T02:58:43.482Z,5.78
2023-01-13T03:01:29.064Z,5.47
2023-01-13T03:04:35.566Z,5.63
2023-01-13T03:07:53.287Z,6.18
2023-01-13T03:11:14.873Z,4.68
2023-01-13T03:14:24.957Z,5.03
2023-01-13T03:17:20.197Z,5.78
2023-01-13T03:20:31.829Z,4.80
2023-01-13T03:23:41.812Z,5.00
2023-01-13T03:26:41.965Z,6.03
2023-01-13T03:29:36.830Z,5.45
2023-01-13T03:32:34.098Z,6.00
2023-01-13T03:35:41.924Z,4.70
2023-01-13T03:38:48.952Z,4.65
2023-01-13T03:41:39.335Z,4.75
2023-01-13T03:44:33.843Z,4.30
2023-01-13T03:47:27.506Z,4.20
2023-01-13T03:50:21.989Z,4.25
2023-01-13T03:53:12.599Z,5.20
2023-01-13T03:56:02.754Z,4.93
2023-01-13T03:58:50.990Z,3.55
2023-01-13T04:01:46.072Z,4.63
2023-01-13T04:04:39.478Z,3.88
2023-01-13T04:07:48.772Z,4.60
2023-01-13T04:10:53.193Z,4.70
2023-01-13T04:13:41.745Z,4.10
2023-01-13T04:16:26.989Z,4.07
2023-01-13T04:19:12.347Z,4.70
2023-01-13T04:21:57.824Z,3.67
2023-01-13T04:24:43.019Z,4.25
2023-01-13T04:27:28.517Z,3.78
2023-01-13T04:30:14.436Z,4.10
2023-01-13T04:32:59.904Z,4.95
2023-01-13T04:35:46.939Z,3.75
2023-01-13T04:38:32.306Z,3.10
2023-01-13T04:41:17.808Z,3.50
2023-01-13T04:44:03.260Z,3.15
2023-01-13T04:46:48.899Z,3.45
2023-01-13T04:49:34.247Z,3.15
2023-01-13T04:52:19.971Z,2.97
2023-01-13T04:55:05.672Z,3.67
2023-01-13T04:57:51.524Z,2.60
2023-01-13T05:00:37.586Z,2.70
2023-01-13T05:03:24.474Z,3.50
2023-01-13T05:06:09.845Z,2.92
2023-01-13T05:08:55.012Z,3.35
2023-01-13T05:11:58.785Z,2.58
2023-01-13T05:15:03.052Z,2.45
2023-01-13T05:17:50.157Z,3.25
2023-01-13T05:20:35.629Z,3.05
2023-01-13T05:23:39.167Z,3.15
2023-01-13T05:26:24.617Z,3.25
2023-01-13T05:29:10.052Z,2.88
2023-01-13T05:31:55.482Z,3.15
2023-01-13T05:34:40.771Z,2.95
2023-01-13T05:37:27.768Z,2.70
2023-01-13T05:40:34.800Z,2.72
2023-01-13T05:43:22.883Z,3.63
2023-01-13T05:46:10.157Z,3.10
2023-01-13T05:48:55.788Z,2.70
2023-01-13T05:51:41.029Z,3.22
2023-01-13T05:54:26.618Z,3.05
2023-01-13T05:57:12.148Z,2.97
2023-01-13T05:59:57.631Z,3.20
2023-01-13T06:02:43.249Z,3.25
2023-01-13T06:05:29.505Z,2.92
2023-01-13T06:08:15.169Z,3.53
2023-01-13T06:11:00.976Z,3.33
2023-01-13T06:13:46.324Z,3.75
2023-01-13T06:16:31.898Z,3.13
2023-01-13T06:19:17.688Z,2.97
2023-01-13T06:22:23.351Z,3.67
2023-01-13T06:25:22.513Z,3.20
2023-01-13T06:28:08.321Z,3.25
2023-01-13T06:30:58.989Z,3.28
2023-01-13T06:33:49.533Z,3.30
2023-01-13T06:36:45.714Z,3.30
2023-01-13T06:39:32.253Z,2.70
2023-01-13T06:42:35.976Z,3.08
2023-01-13T06:45:23.520Z,3.72
2023-01-13T06:48:09.070Z,2.80
2023-01-13T06:50:54.751Z,3.13
2023-01-13T06:53:40.082Z,3.50
2023-01-13T06:56:25.696Z,3.08
2023-01-13T06:59:11.116Z,3.28
2023-01-13T07:01:57.079Z,3.58
2023-01-13T07:04:42.533Z,3.20
2023-01-13T07:07:28.042Z,3.60
2023-01-13T07:10:21.985Z,3.58
2023-01-13T07:13:25.850Z,3.47
2023-01-13T07:16:11.254Z,3.85
2023-01-13T07:18:56.738Z,3.75
2023-01-13T07:21:42.101Z,3.65
2023-01-13T07:24:27.366Z,4.00
2023-01-13T07:27:12.713Z,3.60
2023-01-13T07:29:58.178Z,3.63
2023-01-13T07:32:43.507Z,4.03
2023-01-13T07:35:29.007Z,3.55
2023-01-13T07:38:15.310Z,4.30
2023-01-13T07:41:24.133Z,4.03
2023-01-13T07:44:10.821Z,3.90
2023-01-13T07:46:56.240Z,4.07
2023-01-13T07:49:41.773Z,3.45
2023-01-13T07:52:27.356Z,3.60
2023-01-13T07:55:13.319Z,4.03
2023-01-13T07:57:58.722Z,3.83
2023-01-13T08:00:44.344Z,3.90
2023-01-13T08:03:29.607Z,4.05
2023-01-13T08:06:15.213Z,4.40
2023-01-13T08:09:00.785Z,4.32
2023-01-13T08:12:06.459Z,3.67
2023-01-13T08:14:54.040Z,3.60
2023-01-13T08:17:39.637Z,3.50
2023-01-13T08:20:25.777Z,3.67
2023-01-13T08:23:11.336Z,4.05
2023-01-13T08:26:04.349Z,3.17
2023-01-13T08:28:49.515Z,4.80
2023-01-13T08:31:34.914Z,3.42
2023-01-13T08:34:20.333Z,3.70
2023-01-13T08:37:05.970Z,4.65
2023-01-13T08:39:51.359Z,4.07
2023-01-13T08:42:37.138Z,3.67
2023-01-13T08:45:22.367Z,3.92
2023-01-13T08:48:08.938Z,3.80
2023-01-13T08:50:54.750Z,4.22
2023-01-13T08:53:40.098Z,3.92
2023-01-13T08:56:25.482Z,3.97
2023-01-13T08:59:13.218Z,4.07
2023-01-13T09:01:58.741Z,3.72
2023-01-13T09:04:45.405Z,3.72
2023-01-13T09:07:31.155Z,3.83
2023-01-13T09:10:16.999Z,3.28
2023-01-13T09:13:14.266Z,3.55
2023-01-13T09:15:59.951Z,3.97
2023-01-13T09:18:45.492Z,3.67
2023-01-13T09:21:31.032Z,3.17
2023-01-13T09:24:16.645Z,4.05
2023-01-13T09:27:02.577Z,3.60
2023-01-13T09:29:48.026Z,3.72
2023-01-13T09:32:33.435Z,3.42
2023-01-13T09:35:18.885Z,3.70
2023-01-13T09:38:04.727Z,3.45
2023-01-13T09:40:49.967Z,3.33
2023-01-13T09:43:54.622Z,3.17
2023-01-13T09:46:47.692Z,3.45
2023-01-13T09:49:40.233Z,3.30
2023-01-13T09:52:28.086Z,2.83
2023-01-13T09:55:31.039Z,2.90
2023-01-13T09:58:18.636Z,3.05
2023-01-13T10:01:20.627Z,3.55
2023-01-13T10:04:15.230Z,3.28
2023-01-13T10:07:05.615Z,2.65
2023-01-13T10:09:53.192Z,3.35
2023-01-13T10:12:58.204Z,3.05
2023-01-13T10:16:18.745Z,3.00
2023-01-13T10:19:17.637Z,3.10
2023-01-13T10:22:32.688Z,3.38
2023-01-13T10:25:27.626Z,3.25
2023-01-13T10:28:14.963Z,3.15
2023-01-13T10:31:01.163Z,2.38
2023-01-13T10:33:46.533Z,3.05
2023-01-13T10:36:31.976Z,2.70
2023-01-13T10:39:17.519Z,2.50
2023-01-13T10:42:05.092Z,2.70
2023-01-13T10:44:57.725Z,2.50
2023-01-13T10:47:43.140Z,3.63
2023-01-13T10:50:34.113Z,2.67
2023-01-13T10:53:24.511Z,2.75
2023-01-13T10:56:18.048Z,2.63
2023-01-13T10:59:13.096Z,2.40
2023-01-13T11:02:25.343Z,2.65
2023-01-13T11:05:25.213Z,3.33
2023-01-13T11:08:19.640Z,3.10
2023-01-13T11:11:26.677Z,2.00
2023-01-13T11:14:40.058Z,2.20
2023-01-13T11:17:31.789Z,2.72
2023-01-13T11:20:45.009Z,2.73
2023-01-13T11:23:34.965Z,2.28
2023-01-13T11:26:27.787Z,2.35
2023-01-13T11:32:16.687Z,2.05
2023-01-13T11:35:09.769Z,2.13
2023-01-13T11:38:01.865Z,2.67
2023-01-13T11:40:50.580Z,2.80
2023-01-13T11:43:47.039Z,2.08
2023-01-13T11:46:32.903Z,2.22
2023-01-13T11:49:26.975Z,2.13
2023-01-13T11:52:42.022Z,2.67
2023-01-13T11:55:58.055Z,2.45
2023-01-13T11:59:05.749Z,2.80
2023-01-13T12:02:35.034Z,2.53
2023-01-13T12:05:51.534Z,2.90
2023-01-13T12:09:01.388Z,2.50
2023-01-13T12:12:22.909Z,2.17
2023-01-13T12:15:21.301Z,2.75
2023-01-13T12:18:26.858Z,2.28
2023-01-13T12:21:31.635Z,2.55
2023-01-13T12:24:25.211Z,2.15
2023-01-13T12:27:38.699Z,2.00
2023-01-13T12:30:41.291Z,2.58
2023-01-13T12:33:57.930Z,2.10
2023-01-13T12:37:13.188Z,2.15
2023-01-13T12:40:19.451Z,2.42
2023-01-13T12:43:40.821Z,1.73
2023-01-13T12:46:29.099Z,2.17
2023-01-13T12:49:26.641Z,2.47
2023-01-13T12:52:14.401Z,2.25
2023-01-13T12:55:02.843Z,2.25
2023-01-13T12:58:16.384Z,2.42
2023-01-13T13:01:12.892Z,2.60
2023-01-13T13:04:10.900Z,2.47
2023-01-13T13:07:10.933Z,2.00
2023-01-13T13:10:01.603Z,2.40
2023-01-13T13:13:05.899Z,2.67
2023-01-13T13:15:51.992Z,2.38
2023-01-13T13:18:37.799Z,2.13
2023-01-13T13:21:23.090Z,2.22
2023-01-13T13:24:11.098Z,2.00
2023-01-13T13:26:56.453Z,2.33
2023-01-13T13:30:01.972Z,2.55
2023-01-13T13:33:02.213Z,2.50
2023-01-13T13:36:31.779Z,2.15
2023-01-13T13:39:50.720Z,1.75
2023-01-13T13:43:13.341Z,2.33
2023-01-13T13:46:16.940Z,2.55
2023-01-13T13:49:03.078Z,2.63
2023-01-13T13:52:06.943Z,2.50
2023-01-13T13:54:56.354Z,3.28
2023-01-13T13:57:46.673Z,2.40
2023-01-13T14:00:35.989Z,2.45
2023-01-13T14:03:22.874Z,2.38
2023-01-13T14:06:20.757Z,2.13
2023-01-13T14:09:17.963Z,2.30
2023-01-13T14:12:08.984Z,2.47
2023-01-13T14:14:57.363Z,2.28
2023-01-13T14:17:43.076Z,2.22
2023-01-13T14:20:29.146Z,2.38
2023-01-13T14:23:18.812Z,2.45
2023-01-13T14:26:09.933Z,2.50
2023-01-13T14:28:57.304Z,2.15
2023-01-13T14:31:43.477Z,2.38
2023-01-13T14:34:31.720Z,1.75
2023-01-13T14:37:23.090Z,2.75
2023-01-13T14:40:35.851Z,2.30
2023-01-13T14:43:24.482Z,2.33
2023-01-13T14:46:10.382Z,2.25
2023-01-13T14:49:02.252Z,2.47
2023-01-13T14:51:47.783Z,2.35
2023-01-13T14:54:47.606Z,2.25
2023-01-13T14:57:35.446Z,2.60
2023-01-13T15:00:24.777Z,2.53
2023-01-13T15:03:15.229Z,2.70
2023-01-13T15:06:00.828Z,2.67
2023-01-13T15:08:46.604Z,3.40
2023-01-13T15:11:32.082Z,2.63
2023-01-13T15:14:25.297Z,2.38
2023-01-13T15:17:16.761Z,2.38
2023-01-13T15:20:03.152Z,2.97
2023-01-13T15:22:49.846Z,2.47
2023-01-13T15:25:37.782Z,2.38
2023-01-13T15:28:25.382Z,2.95
2023-01-13T15:31:10.844Z,2.70
2023-01-13T15:33:56.550Z,2.35
2023-01-13T15:36:41.874Z,2.50
2023-01-13T15:39:27.550Z,2.28
2023-01-13T15:42:32.112Z,2.83
2023-01-13T15:45:35.733Z,2.40
2023-01-13T15:48:23.583Z,2.70
2023-01-13T15:51:13.570Z,2.78
2023-01-13T15:54:02.517Z,1.92
2023-01-13T15:56:48.140Z,2.42
2023-01-13T15:59:33.941Z,2.13
2023-01-13T16:02:19.506Z,2.20
2023-01-13T16:05:06.041Z,2.65
2023-01-13T16:07:51.620Z,1.70
2023-01-13T16:10:37.287Z,1.92
2023-01-13T16:13:22.733Z,1.98
2023-01-13T16:16:19.019Z,2.50
2023-01-13T16:19:04.708Z,2.00
2023-01-13T16:21:49.931Z,1.75
2023-01-13T16:24:35.405Z,1.90
2023-01-13T16:27:23.947Z,2.05
2023-01-13T16:30:25.814Z,2.03
2023-01-13T16:33:11.040Z,2.00
2023-01-13T16:36:10.674Z,1.90
2023-01-13T16:38:57.550Z,1.67
2023-01-13T16:41:43.106Z,2.03
2023-01-13T16:44:28.616Z,1.95
2023-01-13T16:47:16.356Z,1.95
2023-01-13T16:50:01.556Z,1.83
2023-01-13T16:52:47.145Z,2.05
2023-01-13T16:55:32.820Z,2.00
2023-01-13T16:58:20.000Z,2.58
2023-01-13T17:01:05.401Z,2.42
2023-01-13T17:03:51.747Z,2.13
2023-01-13T17:06:53.244Z,2.30
2023-01-13T17:09:38.368Z,2.30
2023-01-13T17:12:23.735Z,2.00
2023-01-13T17:15:12.363Z,2.50
2023-01-13T17:17:58.288Z,2.05
2023-01-13T17:20:43.417Z,2.80
2023-01-13T17:23:29.931Z,1.90
2023-01-13T17:26:37.249Z,2.40
2023-01-13T17:29:25.258Z,2.30
2023-01-13T17:32:16.383Z,1.92
2023-01-13T17:35:02.727Z,2.05
2023-01-13T17:37:48.165Z,2.22
2023-01-13T17:40:33.841Z,2.33
2023-01-13T17:43:19.380Z,1.88
2023-01-13T17:46:12.577Z,2.30
2023-01-13T17:48:58.211Z,2.38
2023-01-13T17:51:47.340Z,2.15
2023-01-13T17:54:32.713Z,2.33
2023-01-13T17:57:18.516Z,2.00
2023-01-13T18:00:04.945Z,2.53
2023-01-13T18:02:57.536Z,2.50
2023-01-13T18:05:44.121Z,2.90
2023-01-13T18:08:29.731Z,2.92
2023-01-13T18:11:18.841Z,2.47
2023-01-13T18:14:06.127Z,2.65
2023-01-13T18:16:52.413Z,2.25
2023-01-13T18:19:56.370Z,2.67
2023-01-13T18:23:00.179Z,2.50
2023-01-13T18:26:07.274Z,2.15
2023-01-13T18:28:52.323Z,2.20
2023-01-13T18:31:37.948Z,2.13
2023-01-13T18:34:23.190Z,2.30
2023-01-13T18:37:11.071Z,2.35
2023-01-13T18:39:56.919Z,2.30
2023-01-13T18:42:51.434Z,2.50
2023-01-13T18:45:36.907Z,1.77
2023-01-13T18:48:22.363Z,2.20
2023-01-13T18:51:07.920Z,2.35
2023-01-13T18:53:53.949Z,1.73
2023-01-13T18:56:39.520Z,2.17
2023-01-13T18:59:25.427Z,2.17
2023-01-13T19:02:16.085Z,2.40
2023-01-13T19:05:01.593Z,2.40
2023-01-13T19:07:51.016Z,2.03
2023-01-13T19:10:37.593Z,2.20
2023-01-13T19:13:22.997Z,2.08
2023-01-13T19:16:09.111Z,1.90
2023-01-13T19:18:54.725Z,2.50
2023-01-13T19:21:40.031Z,2.50
2023-01-13T19:24:26.052Z,1.80
2023-01-13T19:27:16.943Z,1.80
2023-01-13T19:30:03.226Z,1.85
2023-01-13T19:32:49.634Z,1.88
2023-01-13T19:35:37.469Z,1.65
2023-01-13T19:38:24.576Z,1.42
2023-01-13T19:41:33.082Z,2.10
2023-01-13T19:44:37.249Z,1.92
2023-01-13T19:47:22.871Z,2.15
2023-01-13T19:50:09.180Z,1.95
2023-01-13T19:52:54.849Z,2.20
2023-01-13T19:55:45.084Z,2.40
2023-01-13T19:58:31.074Z,1.63
2023-01-13T20:01:16.684Z,1.80
2023-01-13T20:04:03.239Z,2.30
2023-01-13T20:06:48.781Z,2.53
2023-01-13T20:09:35.531Z,1.90
2023-01-13T20:12:21.276Z,2.70
2023-01-13T20:15:07.113Z,2.08
2023-01-13T20:17:52.768Z,2.05
2023-01-13T20:20:38.066Z,2.20
2023-01-13T20:23:23.768Z,2.28
2023-01-13T20:26:09.383Z,1.70
2023-01-13T20:28:54.697Z,1.70
2023-01-13T20:31:40.292Z,1.80
2023-01-13T20:34:26.114Z,1.98
2023-01-13T20:37:11.357Z,2.30
2023-01-13T20:39:58.148Z,2.55
2023-01-13T20:42:46.498Z,2.15
2023-01-13T20:45:31.770Z,2.60
2023-01-13T20:48:17.229Z,2.22
2023-01-13T20:51:02.553Z,2.35
2023-01-13T20:53:48.030Z,1.83
2023-01-13T20:56:33.619Z,2.40
2023-01-13T20:59:19.169Z,1.95
2023-01-13T21:02:07.410Z,2.10
2023-01-13T21:04:52.681Z,2.25
2023-01-13T21:07:38.376Z,2.72
2023-01-13T21:10:23.616Z,2.15
2023-01-13T21:13:29.399Z,2.55
2023-01-13T21:16:14.700Z,3.15
2023-01-13T21:19:10.539Z,2.03
2023-01-13T21:21:56.565Z,2.05
2023-01-13T21:24:42.125Z,2.67
2023-01-13T21:27:27.748Z,1.95
2023-01-13T21:30:14.897Z,1.85
2023-01-13T21:33:00.898Z,2.22
2023-01-13T21:35:46.405Z,2.50
2023-01-13T21:38:32.064Z,2.67
2023-01-13T21:41:37.543Z,2.70
2023-01-13T21:44:41.142Z,2.38
2023-01-13T21:47:45.124Z,1.92
2023-01-13T21:50:30.581Z,2.53
2023-01-13T21:53:15.935Z,2.95
2023-01-13T21:56:01.455Z,2.88
2023-01-13T21:58:47.056Z,2.47
2023-01-13T22:01:32.607Z,2.10
2023-01-13T22:04:22.180Z,3.22
2023-01-13T22:07:07.544Z,2.47
2023-01-13T22:09:53.033Z,2.17
2023-01-13T22:12:39.312Z,2.30
2023-01-13T22:15:27.972Z,2.50
2023-01-13T22:18:13.276Z,2.17
2023-01-13T22:21:01.543Z,2.63
2023-01-13T22:23:47.429Z,2.97
2023-01-13T22:26:32.696Z,3.33
2023-01-13T22:29:18.345Z,2.33
2023-01-13T22:32:04.731Z,2.65
2023-01-13T22:34:50.274Z,2.42
2023-01-13T22:37:36.342Z,2.45
2023-01-13T22:40:21.799Z,2.42
2023-01-13T22:43:07.407Z,2.03
2023-01-13T22:46:00.073Z,2.08
2023-01-13T22:48:46.117Z,1.90
2023-01-13T22:51:31.481Z,2.00
2023-01-13T22:54:18.249Z,3.10
2023-01-13T22:57:03.777Z,2.05
2023-01-13T22:59:49.021Z,2.47
2023-01-13T23:02:34.673Z,2.13
2023-01-13T23:05:20.409Z,2.35
2023-01-13T23:08:06.609Z,2.17
2023-01-13T23:10:52.005Z,2.28
2023-01-13T23:13:39.301Z,2.33
2023-01-13T23:16:24.815Z,2.47
2023-01-13T23:19:10.685Z,2.00
2023-01-13T23:21:55.964Z,2.42
2023-01-13T23:24:41.456Z,2.65
2023-01-13T23:27:27.130Z,2.47
2023-01-13T23:30:12.625Z,2.53
2023-01-13T23:32:58.232Z,2.22
2023-01-13T23:35:44.349Z,2.35
2023-01-13T23:38:30.299Z,2.50
2023-01-13T23:41:18.752Z,2.30
2023-01-13T23:44:04.095Z,2.17
2023-01-13T23:46:49.649Z,2.20
2023-01-13T23:49:35.205Z,1.83
2023-01-13T23:52:20.551Z,2.10
2023-01-13T23:55:06.427Z,2.47
2023-01-13T23:57:51.875Z,2.67
